createdAt,value
2019-04-22T00:00:55.992Z,5.52
2019-04-22T00:03:33.960Z,5.87
2019-04-22T00:06:14.796Z,6.24
2019-04-22T00:08:49.114Z,6.20
2019-04-22T00:11:25.890Z,6.25
2019-04-22T00:13:52.024Z,6.10
2019-04-22T00:16:26.448Z,6.13
2019-04-22T00:21:25.817Z,6.06
2019-04-22T00:23:51.943Z,6.04
2019-04-22T00:26:26.095Z,5.97
2019-04-22T00:31:31.669Z,5.65
2019-04-22T00:33:58.878Z,5.60
2019-04-22T00:36:28.925Z,5.53
2019-04-22T00:39:07.156Z,5.43
2019-04-22T00:41:40.575Z,5.33
2019-04-22T00:44:02.933Z,5.22
2019-04-22T00:46:39.683Z,5.11
2019-04-22T00:49:43.886Z,4.97
2019-04-22T00:51:36.883Z,4.90
2019-04-22T00:54:03.315Z,4.86
2019-04-22T00:56:38.692Z,4.76
2019-04-22T00:59:01.360Z,4.54
2019-04-22T01:01:32.113Z,4.40
2019-04-22T01:06:35.802Z,4.26
2019-04-22T01:09:04.655Z,4.23
2019-04-22T01:11:37.735Z,4.21
2019-04-22T01:14:01.290Z,4.16
2019-04-22T01:16:35.695Z,4.15
2019-04-22T01:19:09.026Z,4.14
2019-04-22T01:24:05.857Z,4.05
2019-04-22T01:26:34.510Z,4.01
2019-04-22T01:29:01.050Z,4.01
2019-04-22T01:31:25.329Z,4.00
2019-04-22T01:34:05.438Z,3.98
2019-04-22T01:36:43.156Z,3.96
2019-04-22T01:39:18.175Z,3.97
2019-04-22T01:41:55.399Z,3.96
2019-04-22T01:44:22.875Z,3.95
2019-04-22T01:46:54.010Z,3.81
2019-04-22T01:49:21.460Z,3.80
2019-04-22T01:59:14.015Z,3.68
2019-04-22T02:01:49.944Z,3.65
2019-04-22T02:04:26.948Z,3.62
2019-04-22T02:06:52.367Z,3.66
2019-04-22T02:09:22.472Z,3.57
2019-04-22T02:11:56.908Z,3.52
2019-04-22T02:14:26.973Z,3.47
2019-04-22T02:16:56.133Z,3.53
2019-04-22T02:19:23.524Z,3.44
2019-04-22T02:21:51.610Z,3.37
2019-04-22T02:24:26.476Z,3.33
2019-04-22T02:26:49.884Z,3.32
2019-04-22T02:29:27.022Z,3.43
2019-04-22T02:31:59.414Z,3.33
2019-04-22T02:36:58.285Z,3.17
2019-04-22T02:39:24.523Z,3.17
2019-04-22T02:41:57.691Z,3.13
2019-04-22T02:44:33.268Z,3.09
2019-04-22T02:47:18.346Z,3.07
2019-04-22T02:51:52.207Z,3.00
2019-04-22T02:54:44.667Z,2.97
2019-04-22T02:56:56.473Z,2.95
2019-04-22T03:01:54.215Z,2.89
2019-04-22T03:06:50.497Z,2.87
2019-04-22T03:12:21.982Z,2.84
2019-04-22T03:14:30.718Z,2.79
2019-04-22T03:16:57.800Z,2.92
2019-04-22T03:19:46.827Z,2.73
2019-04-22T03:22:02.415Z,2.67
2019-04-22T03:24:46.271Z,2.67
2019-04-22T03:27:01.100Z,2.69
2019-04-22T03:30:40.234Z,2.69
2019-04-22T03:35:31.665Z,2.83
2019-04-22T03:37:43.186Z,2.59
2019-04-22T03:40:14.315Z,2.59
2019-04-22T03:42:37.475Z,2.68
2019-04-22T03:45:14.702Z,2.65
2019-04-22T03:47:36.659Z,2.63
2019-04-22T03:52:26.971Z,2.57
2019-04-22T03:55:09.168Z,2.59
2019-04-22T03:57:49.644Z,2.53
2019-04-22T04:00:08.273Z,2.62
2019-04-22T04:04:58.732Z,2.37
2019-04-22T04:07:48.406Z,2.37
2019-04-22T04:10:10.494Z,2.31
2019-04-22T04:12:38.512Z,2.44
2019-04-22T04:20:10.967Z,2.54
2019-04-22T04:22:56.132Z,2.65
2019-04-22T04:27:55.602Z,2.71
2019-04-22T04:30:13.966Z,2.71
2019-04-22T04:32:50.069Z,2.85
2019-04-22T04:35:23.658Z,2.93
2019-04-22T04:37:45.097Z,3.03
2019-04-22T04:40:25.054Z,3.11
2019-04-22T04:58:09.604Z,3.61
2019-04-22T05:02:48.941Z,3.92
2019-04-22T05:07:43.528Z,4.04
2019-04-22T05:12:52.717Z,4.25
2019-04-22T05:15:18.516Z,4.43
2019-04-22T05:17:45.542Z,4.62
2019-04-22T05:20:28.996Z,4.65
2019-04-22T05:22:41.300Z,4.75
2019-04-22T05:25:13.108Z,4.97
2019-04-22T05:27:40.014Z,5.14
2019-04-22T05:32:43.229Z,5.68
2019-04-22T05:35:14.328Z,5.67
2019-04-22T05:37:43.248Z,5.86
2019-04-22T05:40:19.311Z,6.00
2019-04-22T05:42:39.506Z,6.16
2019-04-22T05:45:11.731Z,6.48
2019-04-22T05:47:44.410Z,6.55
2019-04-22T05:50:08.177Z,6.75
2019-04-22T05:52:52.653Z,6.94
2019-04-22T05:55:43.593Z,7.12
2019-04-22T05:57:59.736Z,7.44
2019-04-22T06:00:35.505Z,7.71
2019-04-22T06:05:24.491Z,7.87
2019-04-22T06:07:53.793Z,8.00
2019-04-22T06:10:35.804Z,8.31
2019-04-22T06:12:59.649Z,8.41
2019-04-22T06:15:29.678Z,8.55
2019-04-22T06:18:09.607Z,8.63
2019-04-22T06:20:37.364Z,9.14
2019-04-22T06:23:04.456Z,9.30
2019-04-22T06:25:49.290Z,9.46
2019-04-22T06:28:15.814Z,9.68
2019-04-22T06:30:35.714Z,9.90
2019-04-22T06:33:09.417Z,9.97
2019-04-22T06:35:45.704Z,10.10
2019-04-22T06:38:25.688Z,10.20
2019-04-22T06:40:42.292Z,10.18
2019-04-22T06:43:09.163Z,10.42
2019-04-22T06:45:35.635Z,10.63
2019-04-22T06:53:09.189Z,10.76
2019-04-22T06:55:43.905Z,10.79
2019-04-22T06:58:10.057Z,10.87
2019-04-22T07:00:42.918Z,11.02
2019-04-22T07:03:28.703Z,11.06
2019-04-22T07:05:41.267Z,11.15
2019-04-22T07:08:30.413Z,11.14
2019-04-22T07:10:43.662Z,11.38
2019-04-22T07:13:17.390Z,11.39
2019-04-22T07:15:50.392Z,11.53
2019-04-22T07:18:18.088Z,11.55
2019-04-22T07:20:44.203Z,11.44
2019-04-22T07:23:17.762Z,11.57
2019-04-22T07:25:49.280Z,11.79
2019-04-22T07:31:02.355Z,12.29
2019-04-22T07:38:17.526Z,12.39
2019-04-22T07:40:51.881Z,12.49
2019-04-22T07:43:19.963Z,12.51
2019-04-22T07:48:26.173Z,12.48
2019-04-22T07:51:05.535Z,12.67
2019-04-22T07:53:13.240Z,12.74
2019-04-22T07:55:50.510Z,12.94
2019-04-22T07:58:18.699Z,13.12
2019-04-22T08:00:53.348Z,13.30
2019-04-22T08:03:18.377Z,13.12
2019-04-22T08:06:00.068Z,13.20
2019-04-22T08:08:26.132Z,13.33
2019-04-22T08:10:48.613Z,13.69
2019-04-22T08:13:16.956Z,13.85
2019-04-22T08:15:54.219Z,13.65
2019-04-22T08:18:21.994Z,13.43
2019-04-22T08:20:47.210Z,13.41
2019-04-22T08:23:23.737Z,13.52
2019-04-22T08:25:49.507Z,13.67
2019-04-22T08:28:26.586Z,13.96
2019-04-22T08:30:55.067Z,14.23
2019-04-22T08:36:09.050Z,14.62
2019-04-22T08:38:30.872Z,14.78
2019-04-22T08:41:16.548Z,14.69
2019-04-22T08:43:48.273Z,14.76
2019-04-22T08:46:18.632Z,14.57
2019-04-22T08:48:47.856Z,14.35
2019-04-22T08:51:19.640Z,14.38
2019-04-22T08:53:53.743Z,14.52
2019-04-22T08:56:28.019Z,14.64
2019-04-22T08:58:50.759Z,14.53
2019-04-22T09:01:20.802Z,14.50
2019-04-22T09:03:46.914Z,14.29
2019-04-22T09:06:20.141Z,14.58
2019-04-22T09:08:50.069Z,14.79
2019-04-22T09:11:20.216Z,15.04
2019-04-22T09:13:50.697Z,15.50
2019-04-22T09:16:19.336Z,15.52
2019-04-22T09:18:48.684Z,14.81
2019-04-22T09:21:31.619Z,14.84
2019-04-22T09:23:52.604Z,15.34
2019-04-22T09:28:53.756Z,15.61
2019-04-22T09:31:19.598Z,16.50
2019-04-22T09:33:45.993Z,17.78
2019-04-22T09:36:22.757Z,19.06
2019-04-22T09:38:46.627Z,19.21
2019-04-22T09:41:23.842Z,19.07
2019-04-22T09:43:53.387Z,19.53
2019-04-22T09:46:22.770Z,19.44
2019-04-22T09:48:56.405Z,19.43
2019-04-22T09:51:18.633Z,19.43
2019-04-22T09:53:54.870Z,18.77
2019-04-22T09:56:23.838Z,18.73
2019-04-22T09:58:49.198Z,19.63
2019-04-22T10:03:56.178Z,20.28
2019-04-22T10:06:29.388Z,20.83
2019-04-22T10:09:24.056Z,21.59
2019-04-22T10:11:27.938Z,21.30
2019-04-22T10:13:53.818Z,20.97
2019-04-22T10:16:29.187Z,19.72
2019-04-22T10:18:52.863Z,18.10
2019-04-22T10:21:36.513Z,17.22
2019-04-22T10:23:53.572Z,16.58
2019-04-22T10:26:30.079Z,16.49
2019-04-22T10:31:31.068Z,16.58
2019-04-22T10:33:48.198Z,16.58
2019-04-22T10:35:59.392Z,16.75
2019-04-22T10:38:28.407Z,16.76
2019-04-22T10:40:58.585Z,17.03
2019-04-22T10:43:27.557Z,17.01
2019-04-22T10:45:56.133Z,16.94
2019-04-22T10:48:26.078Z,16.84
2019-04-22T10:50:54.917Z,17.16
2019-04-22T10:53:23.833Z,17.50
2019-04-22T10:55:52.371Z,17.46
2019-04-22T10:58:22.367Z,17.53
2019-04-22T11:00:52.266Z,17.76
2019-04-22T11:03:22.484Z,17.74
2019-04-22T11:05:53.931Z,18.80
2019-04-22T11:08:31.617Z,19.97
2019-04-22T11:11:08.316Z,21.11
2019-04-22T11:13:22.216Z,21.21
2019-04-22T11:15:51.052Z,22.28
2019-04-22T11:18:20.046Z,23.03
2019-04-22T11:20:49.574Z,23.40
2019-04-22T11:23:18.671Z,24.05
2019-04-22T11:25:47.996Z,23.55
2019-04-22T11:28:18.003Z,24.29
2019-04-22T11:30:48.134Z,22.47
2019-04-22T11:33:18.288Z,22.22
2019-04-22T11:35:47.972Z,21.92
2019-04-22T11:38:17.238Z,22.08
2019-04-22T11:40:51.724Z,21.37
2019-04-22T11:43:16.445Z,20.37
2019-04-22T11:45:45.230Z,20.40
2019-04-22T11:48:15.300Z,20.18
2019-04-22T11:50:44.086Z,20.10
2019-04-22T11:53:13.107Z,20.36
2019-04-22T11:55:42.575Z,20.92
2019-04-22T11:58:12.708Z,21.01
2019-04-22T12:00:43.122Z,20.88
2019-04-22T12:03:12.673Z,20.13
2019-04-22T12:05:41.699Z,20.81
2019-04-22T12:08:11.271Z,20.54
2019-04-22T12:10:48.305Z,20.89
2019-04-22T12:13:10.387Z,22.15
2019-04-22T12:15:40.622Z,23.30
2019-04-22T12:18:11.208Z,24.43
2019-04-22T12:20:41.291Z,24.94
2019-04-22T12:23:11.146Z,25.97
2019-04-22T12:25:48.745Z,26.36
2019-04-22T12:28:11.164Z,27.01
2019-04-22T12:30:39.872Z,28.97
2019-04-22T12:33:11.017Z,29.06
2019-04-22T12:35:38.829Z,29.87
2019-04-22T12:38:10.270Z,29.59
2019-04-22T12:40:46.775Z,29.19
2019-04-22T12:43:10.262Z,28.47
2019-04-22T12:45:38.558Z,30.45
2019-04-22T12:48:08.704Z,28.91
2019-04-22T12:50:41.785Z,29.26
2019-04-22T12:53:13.753Z,29.30
2019-04-22T12:55:38.019Z,27.19
2019-04-22T12:58:07.622Z,28.41
2019-04-22T13:00:36.422Z,30.29
2019-04-22T13:03:05.598Z,29.62
2019-04-22T13:05:35.265Z,28.35
2019-04-22T13:08:05.453Z,28.82
2019-04-22T13:10:45.650Z,29.32
2019-04-22T13:13:04.987Z,29.35
2019-04-22T13:15:35.098Z,28.97
2019-04-22T13:18:14.931Z,26.99
2019-04-22T13:20:34.545Z,27.57
2019-04-22T13:23:04.041Z,29.18
2019-04-22T13:25:32.654Z,28.70
2019-04-22T13:28:01.143Z,29.01
2019-04-22T13:30:32.580Z,28.60
2019-04-22T13:33:02.600Z,29.01
2019-04-22T13:35:31.835Z,28.44
2019-04-22T13:38:01.249Z,29.03
2019-04-22T13:40:30.773Z,27.91
2019-04-22T13:43:00.771Z,27.22
2019-04-22T13:45:29.807Z,27.11
2019-04-22T13:48:16.678Z,26.70
2019-04-22T13:51:01.000Z,25.27
2019-04-22T13:58:16.081Z,21.40
2019-04-22T14:00:34.596Z,22.67
2019-04-22T14:03:08.910Z,22.45
2019-04-22T14:05:40.466Z,25.19
2019-04-22T14:08:10.697Z,26.39
2019-04-22T14:10:40.587Z,25.90
2019-04-22T14:13:09.954Z,26.94
2019-04-22T14:15:40.134Z,25.84
2019-04-22T14:18:08.937Z,24.76
2019-04-22T14:20:38.687Z,25.86
2019-04-22T14:23:08.333Z,27.73
2019-04-22T14:25:38.692Z,28.51
2019-04-22T14:28:13.071Z,29.05
2019-04-22T14:30:38.788Z,29.34
2019-04-22T14:33:07.359Z,28.64
2019-04-22T14:35:38.010Z,28.05
2019-04-22T14:38:06.521Z,28.86
2019-04-22T14:40:37.257Z,28.01
2019-04-22T14:43:29.015Z,27.55
2019-04-22T14:46:08.175Z,27.84
2019-04-22T14:48:36.262Z,28.63
2019-04-22T14:50:57.696Z,29.15
2019-04-22T14:53:29.370Z,28.78
2019-04-22T14:55:38.440Z,28.45
2019-04-22T14:58:08.900Z,27.34
2019-04-22T15:00:38.316Z,26.64
2019-04-22T15:03:08.239Z,27.06
2019-04-22T15:05:37.413Z,27.04
2019-04-22T15:08:06.991Z,25.85
2019-04-22T15:10:36.198Z,25.90
2019-04-22T15:13:05.416Z,27.37
2019-04-22T15:15:56.823Z,26.66
2019-04-22T15:18:31.830Z,27.47
2019-04-22T15:21:05.007Z,27.52
2019-04-22T15:23:34.805Z,28.38
2019-04-22T15:26:04.597Z,27.58
2019-04-22T15:28:33.445Z,27.90
2019-04-22T15:31:03.484Z,27.46
2019-04-22T15:33:33.099Z,27.94
2019-04-22T15:36:01.724Z,27.95
2019-04-22T15:38:30.344Z,26.50
2019-04-22T15:40:58.874Z,26.04
2019-04-22T15:43:31.142Z,26.17
2019-04-22T15:46:00.447Z,25.94
2019-04-22T15:48:28.870Z,26.25
2019-04-22T15:50:58.447Z,26.09
2019-04-22T15:53:27.605Z,25.71
2019-04-22T15:55:56.596Z,25.04
2019-04-22T15:58:25.818Z,24.58
2019-04-22T16:01:06.195Z,25.35
2019-04-22T16:03:24.888Z,25.66
2019-04-22T16:05:54.441Z,26.02
2019-04-22T16:08:24.534Z,25.44
2019-04-22T16:10:53.708Z,25.91
2019-04-22T16:13:25.532Z,24.60
2019-04-22T16:15:52.614Z,24.05
2019-04-22T16:18:22.488Z,23.07
2019-04-22T16:20:52.445Z,22.09
2019-04-22T16:23:27.875Z,22.54
2019-04-22T16:26:00.926Z,23.10
2019-04-22T16:28:29.508Z,23.38
2019-04-22T16:30:59.481Z,22.74
2019-04-22T16:33:28.214Z,23.20
2019-04-22T16:35:56.727Z,22.46
2019-04-22T16:38:26.761Z,22.11
2019-04-22T16:40:56.838Z,21.99
2019-04-22T16:43:26.604Z,21.05
2019-04-22T16:45:55.850Z,19.93
2019-04-22T16:48:25.560Z,19.39
2019-04-22T16:50:54.981Z,18.89
2019-04-22T16:53:25.292Z,18.42
2019-04-22T16:55:54.879Z,17.59
2019-04-22T16:58:25.039Z,17.44
2019-04-22T17:00:54.676Z,17.26
2019-04-22T17:03:31.123Z,17.15
2019-04-22T17:06:07.863Z,16.73
2019-04-22T17:08:37.041Z,16.57
2019-04-22T17:11:07.340Z,16.29
2019-04-22T17:13:38.080Z,16.05
2019-04-22T17:16:07.176Z,15.88
2019-04-22T17:18:37.090Z,16.02
2019-04-22T17:21:08.469Z,15.88
2019-04-22T17:23:37.915Z,15.89
2019-04-22T17:26:06.653Z,16.15
2019-04-22T17:28:35.536Z,16.38
2019-04-22T17:31:04.735Z,16.35
2019-04-22T17:33:34.882Z,16.16
2019-04-22T17:36:03.620Z,15.70
2019-04-22T17:38:43.781Z,15.52
2019-04-22T17:41:20.521Z,15.74
2019-04-22T17:44:12.215Z,15.61
2019-04-22T17:46:19.354Z,15.13
2019-04-22T17:48:59.183Z,15.01
2019-04-22T17:56:30.876Z,14.44
2019-04-22T17:59:17.204Z,14.36
2019-04-22T18:01:29.518Z,14.24
2019-04-22T18:03:48.627Z,14.09
2019-04-22T18:06:34.837Z,14.17
2019-04-22T18:09:01.764Z,13.92
2019-04-22T18:11:40.097Z,13.72
2019-04-22T18:14:14.238Z,13.59
2019-04-22T18:16:34.460Z,13.46
2019-04-22T18:19:00.754Z,13.49
2019-04-22T18:21:26.439Z,13.21
2019-04-22T18:23:54.019Z,13.04
2019-04-22T18:26:32.138Z,13.01
2019-04-22T18:29:02.422Z,12.98
2019-04-22T18:31:26.906Z,12.87
2019-04-22T18:33:56.432Z,13.02
2019-04-22T18:36:29.075Z,12.86
2019-04-22T18:39:11.175Z,12.92
2019-04-22T18:41:36.856Z,12.89
2019-04-22T18:44:06.064Z,12.79
2019-04-22T18:46:33.010Z,12.69
2019-04-22T18:49:03.384Z,12.63
2019-04-22T18:51:42.559Z,12.59
2019-04-22T18:54:11.925Z,12.58
2019-04-22T18:56:43.777Z,12.52
2019-04-22T18:58:59.386Z,12.65
2019-04-22T19:01:21.815Z,12.46
2019-04-22T19:04:01.308Z,12.36
2019-04-22T19:09:16.729Z,12.29
2019-04-22T19:11:52.183Z,12.17
2019-04-22T19:14:10.171Z,12.15
2019-04-22T19:17:07.909Z,12.04
2019-04-22T19:21:43.313Z,12.03
2019-04-22T19:24:09.472Z,11.82
2019-04-22T19:26:58.700Z,11.81
2019-04-22T19:29:13.434Z,11.78
2019-04-22T19:31:49.786Z,11.74
2019-04-22T19:34:17.739Z,11.58
2019-04-22T19:36:48.393Z,11.57
2019-04-22T19:39:13.182Z,11.63
2019-04-22T19:41:53.587Z,11.62
2019-04-22T19:44:14.588Z,11.50
2019-04-22T19:46:55.647Z,11.42
2019-04-22T19:49:24.594Z,11.35
2019-04-22T19:51:53.912Z,11.29
2019-04-22T19:54:14.040Z,11.22
2019-04-22T19:56:38.352Z,11.31
2019-04-22T19:59:12.123Z,11.22
2019-04-22T20:01:47.211Z,11.17
2019-04-22T20:04:31.481Z,11.18
2019-04-22T20:06:53.504Z,11.18
2019-04-22T20:09:30.124Z,11.11
2019-04-22T20:11:59.624Z,11.03
2019-04-22T20:14:29.821Z,11.05
2019-04-22T20:16:54.773Z,10.93
2019-04-22T20:19:39.826Z,10.96
2019-04-22T20:22:02.637Z,11.04
2019-04-22T20:24:16.838Z,11.05
2019-04-22T20:27:02.942Z,11.00
2019-04-22T20:29:38.368Z,10.94
2019-04-22T20:32:05.538Z,10.99
2019-04-22T20:34:40.886Z,11.00
2019-04-22T20:37:10.220Z,10.85
2019-04-22T20:39:40.943Z,10.67
2019-04-22T20:42:19.454Z,10.49
2019-04-22T20:44:39.538Z,10.53
2019-04-22T20:47:04.667Z,10.64
2019-04-22T20:49:38.330Z,10.63
2019-04-22T20:52:16.355Z,10.51
2019-04-22T20:54:37.250Z,10.45
2019-04-22T20:57:04.306Z,10.32
2019-04-22T20:59:32.951Z,10.14
2019-04-22T21:02:03.127Z,10.12
2019-04-22T21:04:26.097Z,9.88
2019-04-22T21:07:01.896Z,9.60
2019-04-22T21:09:35.550Z,9.54
2019-04-22T21:12:02.163Z,9.68
2019-04-22T21:14:32.442Z,9.71
2019-04-22T21:17:11.911Z,9.59
2019-04-22T21:22:08.050Z,9.38
2019-04-22T21:24:36.091Z,9.16
2019-04-22T21:27:14.092Z,9.11
2019-04-22T21:29:33.595Z,8.97
2019-04-22T21:32:10.461Z,8.99
2019-04-22T21:34:47.556Z,9.13
2019-04-22T21:37:17.031Z,9.10
2019-04-22T21:39:40.170Z,9.16
2019-04-22T21:42:11.871Z,9.23
2019-04-22T21:44:38.076Z,9.32
2019-04-22T21:47:14.535Z,9.28
2019-04-22T21:49:45.865Z,9.52
2019-04-22T21:52:13.471Z,9.54
2019-04-22T21:54:46.692Z,9.55
2019-04-22T21:57:18.957Z,9.56
2019-04-22T21:59:46.149Z,9.63
2019-04-22T22:02:25.657Z,9.69
2019-04-22T22:04:48.903Z,9.73
2019-04-22T22:07:07.536Z,9.84
2019-04-22T22:09:49.023Z,9.79
2019-04-22T22:12:17.116Z,9.77
2019-04-22T22:14:50.124Z,9.75
2019-04-22T22:17:20.650Z,9.75
2019-04-22T22:19:49.869Z,9.84
2019-04-22T22:22:39.820Z,9.86
2019-04-22T22:24:50.148Z,10.00
2019-04-22T22:27:18.526Z,9.93
2019-04-22T22:30:16.412Z,9.98
2019-04-22T22:32:25.445Z,9.89
2019-04-22T22:34:50.741Z,9.93
2019-04-22T22:37:13.402Z,9.93
2019-04-22T22:39:42.918Z,9.94
2019-04-22T22:42:03.645Z,9.97
2019-04-22T22:44:36.880Z,9.86
2019-04-22T22:47:18.096Z,9.87
2019-04-22T22:49:53.068Z,9.85
2019-04-22T22:52:44.632Z,9.85
2019-04-22T22:54:54.143Z,9.83
2019-04-22T22:57:27.646Z,9.91
2019-04-22T22:59:57.795Z,10.00
2019-04-22T23:02:24.849Z,9.92
2019-04-22T23:04:57.713Z,9.79
2019-04-22T23:07:28.929Z,9.79
2019-04-22T23:09:53.664Z,9.63
2019-04-22T23:12:34.590Z,9.62
2019-04-22T23:14:55.755Z,9.71
2019-04-22T23:17:11.850Z,9.74
2019-04-22T23:19:40.649Z,9.79
2019-04-22T23:22:20.546Z,9.75
2019-04-22T23:25:01.237Z,9.60
2019-04-22T23:27:40.412Z,9.56
2019-04-22T23:30:05.313Z,9.62
2019-04-22T23:32:38.842Z,9.68
2019-04-22T23:35:17.984Z,9.70
2019-04-22T23:37:51.000Z,9.79
2019-04-22T23:42:53.857Z,9.63
2019-04-22T23:45:21.176Z,9.69
2019-04-22T23:47:44.889Z,9.82
2019-04-22T23:50:26.474Z,9.67
2019-04-22T23:52:54.419Z,9.53
2019-04-22T23:55:29.821Z,9.64
2019-04-22T23:58:19.095Z,9.48
